createdAt,value
2023-05-25T00:00:27.365Z,81.36
2023-05-25T00:01:35.155Z,81.29
2023-05-25T00:02:38.382Z,81.75
2023-05-25T00:03:40.379Z,81.76
2023-05-25T00:04:43.429Z,81.31
2023-05-25T00:05:45.472Z,81.40
2023-05-25T00:06:50.614Z,81.90
2023-05-25T00:07:55.152Z,81.28
2023-05-25T00:08:59.716Z,81.81
2023-05-25T00:10:03.125Z,81.57
2023-05-25T00:11:06.054Z,81.52
2023-05-25T00:12:10.783Z,81.70
2023-05-25T00:13:13.574Z,81.48
2023-05-25T00:14:15.364Z,81.80
2023-05-25T00:15:18.346Z,81.96
2023-05-25T00:16:20.524Z,81.81
2023-05-25T00:17:24.274Z,81.55
2023-05-25T00:18:27.129Z,81.72
2023-05-25T00:19:32.278Z,81.83
2023-05-25T00:20:35.913Z,81.72
2023-05-25T00:21:40.031Z,81.23
2023-05-25T00:22:45.548Z,81.46
2023-05-25T00:23:49.170Z,81.60
2023-05-25T00:24:51.022Z,81.82
2023-05-25T00:25:57.575Z,81.21
2023-05-25T00:26:59.464Z,81.16
2023-05-25T00:28:04.390Z,81.49
2023-05-25T00:29:07.157Z,81.36
2023-05-25T00:30:10.593Z,81.63
2023-05-25T00:31:12.795Z,81.39
2023-05-25T00:32:16.090Z,81.62
2023-05-25T00:33:17.891Z,81.75
2023-05-25T00:34:21.846Z,81.00
2023-05-25T00:35:24.350Z,81.17
2023-05-25T00:36:27.160Z,80.92
2023-05-25T00:37:29.120Z,81.12
2023-05-25T00:38:32.026Z,81.30
2023-05-25T00:39:33.860Z,81.58
2023-05-25T00:40:37.126Z,81.47
2023-05-25T00:41:42.999Z,81.88
2023-05-25T00:42:48.089Z,81.77
2023-05-25T00:43:49.935Z,81.76
2023-05-25T00:44:52.723Z,81.97
2023-05-25T00:45:56.279Z,81.87
2023-05-25T00:46:59.140Z,82.01
2023-05-25T00:48:01.319Z,82.01
2023-05-25T00:49:04.142Z,82.36
2023-05-25T00:50:09.420Z,82.46
2023-05-25T00:51:12.459Z,81.93
2023-05-25T00:52:14.977Z,82.32
2023-05-25T00:53:20.005Z,82.37
2023-05-25T00:54:24.558Z,82.26
2023-05-25T00:55:30.777Z,82.41
2023-05-25T00:56:35.646Z,82.07
2023-05-25T00:57:45.880Z,82.20
2023-05-25T00:58:51.812Z,81.75
2023-05-25T00:59:55.674Z,82.11
2023-05-25T01:00:58.758Z,82.43
2023-05-25T01:02:06.960Z,82.10
2023-05-25T01:03:13.311Z,82.44
2023-05-25T01:04:17.268Z,81.88
2023-05-25T01:05:30.650Z,81.80
2023-05-25T01:06:34.011Z,82.05
2023-05-25T01:07:36.992Z,82.03
2023-05-25T01:08:41.747Z,82.40
2023-05-25T01:09:45.393Z,81.78
2023-05-25T01:10:49.794Z,82.20
2023-05-25T01:11:52.226Z,82.65
2023-05-25T01:12:56.503Z,82.21
2023-05-25T01:13:59.041Z,82.34
2023-05-25T01:15:05.912Z,82.08
2023-05-25T01:16:09.219Z,81.94
2023-05-25T01:17:12.102Z,82.72
2023-05-25T01:18:15.108Z,82.42
2023-05-25T01:19:18.432Z,82.72
2023-05-25T01:20:23.494Z,82.65
2023-05-25T01:21:32.425Z,82.63
2023-05-25T01:22:40.430Z,82.38
2023-05-25T01:23:46.869Z,82.18
2023-05-25T01:24:51.783Z,82.22
2023-05-25T01:25:57.300Z,82.59
2023-05-25T01:27:16.158Z,82.60
2023-05-25T01:28:22.791Z,82.06
2023-05-25T01:29:26.352Z,82.78
2023-05-25T01:30:32.664Z,82.44
2023-05-25T01:31:35.995Z,82.60
2023-05-25T01:32:42.248Z,82.75
2023-05-25T01:33:44.577Z,83.02
2023-05-25T01:34:48.268Z,82.33
2023-05-25T01:35:51.839Z,82.63
2023-05-25T01:36:56.933Z,82.82
2023-05-25T01:37:58.984Z,83.04
2023-05-25T01:39:01.989Z,82.35
2023-05-25T01:40:06.227Z,82.51
2023-05-25T01:41:12.610Z,82.42
2023-05-25T01:42:14.432Z,82.66
2023-05-25T01:43:17.436Z,82.47
2023-05-25T01:44:19.522Z,82.32
2023-05-25T01:45:24.287Z,82.54
2023-05-25T01:46:30.957Z,82.97
2023-05-25T01:47:45.819Z,82.77
2023-05-25T01:48:56.583Z,82.85
2023-05-25T01:50:07.724Z,82.52
2023-05-25T01:51:19.332Z,82.70
2023-05-25T01:52:27.984Z,82.66
2023-05-25T01:53:31.387Z,82.62
2023-05-25T01:54:38.170Z,82.42
2023-05-25T01:55:46.834Z,82.69
2023-05-25T01:56:51.532Z,82.74
2023-05-25T01:57:57.910Z,82.74
2023-05-25T01:59:02.987Z,82.48
2023-05-25T02:00:06.884Z,82.82
2023-05-25T02:01:17.142Z,82.96
2023-05-25T02:02:21.057Z,82.64
2023-05-25T02:03:24.329Z,83.06
2023-05-25T02:04:29.161Z,82.23
2023-05-25T02:05:32.697Z,82.57
2023-05-25T02:06:36.168Z,82.70
2023-05-25T02:08:05.357Z,82.18
2023-05-25T02:09:08.066Z,82.94
2023-05-25T02:10:11.926Z,82.62
2023-05-25T02:11:14.584Z,83.38
2023-05-25T02:12:17.931Z,83.25
2023-05-25T02:13:20.230Z,82.77
2023-05-25T02:14:23.917Z,83.13
2023-05-25T02:15:28.244Z,83.42
2023-05-25T02:16:31.596Z,82.70
2023-05-25T02:17:37.183Z,83.03
2023-05-25T02:18:44.717Z,82.71
2023-05-25T02:19:49.040Z,83.39
2023-05-25T02:20:52.530Z,83.48
2023-05-25T02:21:54.808Z,83.18
2023-05-25T02:22:59.612Z,82.91
2023-05-25T02:24:03.729Z,83.09
2023-05-25T02:25:10.121Z,83.20
2023-05-25T02:26:12.437Z,82.83
2023-05-25T02:27:15.608Z,83.47
2023-05-25T02:28:18.029Z,83.27
2023-05-25T02:29:21.358Z,83.25
2023-05-25T02:30:23.590Z,83.27
2023-05-25T02:31:31.479Z,83.57
2023-05-25T02:32:33.920Z,83.79
2023-05-25T02:33:38.481Z,83.43
2023-05-25T02:34:42.358Z,83.18
2023-05-25T02:35:45.086Z,83.62
2023-05-25T02:36:48.590Z,83.83
2023-05-25T02:37:51.384Z,84.12
2023-05-25T02:38:54.640Z,84.20
2023-05-25T02:39:58.333Z,83.62
2023-05-25T02:41:01.888Z,83.59
2023-05-25T02:42:04.304Z,84.10
2023-05-25T02:43:07.524Z,83.95
2023-05-25T02:44:10.294Z,84.14
2023-05-25T02:45:13.725Z,84.00
2023-05-25T02:46:16.526Z,83.47
2023-05-25T02:47:20.425Z,83.72
2023-05-25T02:48:23.062Z,83.91
2023-05-25T02:49:26.393Z,83.69
2023-05-25T02:50:28.760Z,84.36
2023-05-25T02:51:34.093Z,83.82
2023-05-25T02:52:36.454Z,83.62
2023-05-25T02:53:39.575Z,83.40
2023-05-25T02:54:42.021Z,84.35
2023-05-25T02:55:49.489Z,83.77
2023-05-25T02:56:55.163Z,83.33
2023-05-25T02:58:00.087Z,83.98
2023-05-25T02:59:26.307Z,84.11
2023-05-25T03:00:28.807Z,83.87
2023-05-25T03:01:32.173Z,83.75
2023-05-25T03:02:35.825Z,84.13
2023-05-25T03:03:39.294Z,84.21
2023-05-25T03:04:43.344Z,83.86
2023-05-25T03:05:46.569Z,84.12
2023-05-25T03:06:48.787Z,84.42
2023-05-25T03:07:55.284Z,84.33
2023-05-25T03:08:57.201Z,83.82
2023-05-25T03:10:00.620Z,84.07
2023-05-25T03:11:04.583Z,84.13
2023-05-25T03:12:08.569Z,84.09
2023-05-25T03:13:10.930Z,83.89
2023-05-25T03:14:14.364Z,84.66
2023-05-25T03:15:19.390Z,84.64
2023-05-25T03:16:23.409Z,84.41
2023-05-25T03:17:25.859Z,84.33
2023-05-25T03:18:30.070Z,84.42
2023-05-25T03:19:33.610Z,84.34
2023-05-25T03:20:37.164Z,84.75
2023-05-25T03:21:39.612Z,84.25
2023-05-25T03:22:43.201Z,84.32
2023-05-25T03:23:45.500Z,84.34
2023-05-25T03:24:50.273Z,84.31
2023-05-25T03:25:53.307Z,84.26
2023-05-25T03:26:59.050Z,83.91
2023-05-25T03:28:01.456Z,83.98
2023-05-25T03:29:06.914Z,84.25
2023-05-25T03:30:10.326Z,83.94
2023-05-25T03:31:14.083Z,84.20
2023-05-25T03:32:16.499Z,84.23
2023-05-25T03:33:20.498Z,84.02
2023-05-25T03:34:24.737Z,83.95
2023-05-25T03:35:28.065Z,83.83
2023-05-25T03:36:33.575Z,84.05
2023-05-25T03:37:35.676Z,83.97
2023-05-25T03:38:39.697Z,84.21
2023-05-25T03:39:41.821Z,83.88
2023-05-25T03:40:44.997Z,84.37
2023-05-25T03:41:47.313Z,83.73
2023-05-25T03:42:52.132Z,84.03
2023-05-25T03:43:54.400Z,84.08
2023-05-25T03:44:57.828Z,83.87
2023-05-25T03:46:00.207Z,84.34
2023-05-25T03:47:03.727Z,84.14
2023-05-25T03:48:07.166Z,84.52
2023-05-25T03:49:13.951Z,84.14
2023-05-25T03:50:16.697Z,84.53
2023-05-25T03:51:20.041Z,84.89
2023-05-25T03:52:22.220Z,84.86
2023-05-25T03:53:25.625Z,83.96
2023-05-25T03:54:28.093Z,84.25
2023-05-25T03:55:32.498Z,84.08
2023-05-25T03:56:34.912Z,84.02
2023-05-25T03:57:39.129Z,84.30
2023-05-25T03:58:42.861Z,84.10
2023-05-25T03:59:47.153Z,84.03
2023-05-25T04:00:50.523Z,83.91
2023-05-25T04:01:53.893Z,83.28
2023-05-25T04:02:59.007Z,83.54
2023-05-25T04:04:01.668Z,84.19
2023-05-25T04:05:05.230Z,84.13
2023-05-25T04:06:07.750Z,83.78
2023-05-25T04:07:11.029Z,83.80
2023-05-25T04:08:17.973Z,84.03
2023-05-25T04:09:21.515Z,83.55
2023-05-25T04:10:24.714Z,84.05
2023-05-25T04:11:29.274Z,83.49
2023-05-25T04:12:32.487Z,83.62
2023-05-25T04:13:36.767Z,83.98
2023-05-25T04:14:43.578Z,83.74
2023-05-25T04:15:46.181Z,83.83
2023-05-25T04:16:53.897Z,83.46
2023-05-25T04:17:56.303Z,83.40
2023-05-25T04:18:59.583Z,83.85
2023-05-25T04:20:02.232Z,83.48
2023-05-25T04:21:06.411Z,83.70
2023-05-25T04:22:08.664Z,83.59
2023-05-25T04:23:11.988Z,83.39
2023-05-25T04:24:15.938Z,83.33
2023-05-25T04:25:20.044Z,83.19
2023-05-25T04:26:23.889Z,83.01
2023-05-25T04:27:28.763Z,83.11
2023-05-25T04:28:32.410Z,83.18
2023-05-25T04:29:44.036Z,83.19
2023-05-25T04:31:06.397Z,83.35
2023-05-25T04:32:32.231Z,83.22
2023-05-25T04:33:59.115Z,83.32
2023-05-25T04:35:08.630Z,83.40
2023-05-25T04:36:18.110Z,83.32
2023-05-25T04:37:21.852Z,83.35
2023-05-25T04:38:25.185Z,83.01
2023-05-25T04:39:29.031Z,83.04
2023-05-25T04:40:33.490Z,82.69
2023-05-25T04:41:37.857Z,82.43
2023-05-25T04:42:44.957Z,82.83
2023-05-25T04:44:04.566Z,82.62
2023-05-25T04:45:12.193Z,82.52
2023-05-25T04:46:17.040Z,82.42
2023-05-25T04:47:21.054Z,82.37
2023-05-25T04:48:24.597Z,81.96
2023-05-25T04:49:27.971Z,82.15
2023-05-25T04:50:30.276Z,82.19
2023-05-25T04:51:33.575Z,82.02
2023-05-25T04:52:35.818Z,82.33
2023-05-25T04:53:39.579Z,82.32
2023-05-25T04:54:41.929Z,82.27
2023-05-25T04:55:45.855Z,81.74
2023-05-25T04:56:49.326Z,81.59
2023-05-25T04:57:53.287Z,81.85
2023-05-25T04:58:56.528Z,81.73
2023-05-25T04:59:59.268Z,82.18
2023-05-25T05:01:04.144Z,81.93
2023-05-25T05:02:08.415Z,82.17
2023-05-25T05:03:11.829Z,81.94
2023-05-25T05:04:16.442Z,81.80
2023-05-25T05:05:20.089Z,81.86
2023-05-25T05:06:22.988Z,82.28
2023-05-25T05:07:26.396Z,82.30
2023-05-25T05:08:28.659Z,81.81
2023-05-25T05:09:32.006Z,82.02
2023-05-25T05:10:36.249Z,82.02
2023-05-25T05:11:40.212Z,82.04
2023-05-25T05:12:43.118Z,82.07
2023-05-25T05:13:46.507Z,81.89
2023-05-25T05:14:49.236Z,81.76
2023-05-25T05:15:54.114Z,81.83
2023-05-25T05:16:58.007Z,81.56
2023-05-25T05:18:01.538Z,81.86
2023-05-25T05:19:04.819Z,81.35
2023-05-25T05:20:09.755Z,81.96
2023-05-25T05:21:12.132Z,81.81
2023-05-25T05:22:16.141Z,81.69
2023-05-25T05:23:20.095Z,81.85
2023-05-25T05:24:22.871Z,81.40
2023-05-25T05:25:25.693Z,81.22
2023-05-25T05:26:27.770Z,81.67
2023-05-25T05:27:30.757Z,81.62
2023-05-25T05:28:39.883Z,81.50
2023-05-25T05:29:43.910Z,81.67
2023-05-25T05:30:47.351Z,81.44
2023-05-25T05:31:50.515Z,81.64
2023-05-25T05:32:54.285Z,81.76
2023-05-25T05:34:02.093Z,81.83
2023-05-25T05:35:06.526Z,81.44
2023-05-25T05:36:22.209Z,81.19
2023-05-25T05:37:25.355Z,81.34
2023-05-25T05:38:28.794Z,81.02
2023-05-25T05:39:31.416Z,81.45
2023-05-25T05:40:35.257Z,80.90
2023-05-25T05:41:37.470Z,81.05
2023-05-25T05:42:42.476Z,81.16
2023-05-25T05:43:46.396Z,81.12
2023-05-25T05:44:49.711Z,81.26
2023-05-25T05:45:51.984Z,81.39
2023-05-25T05:47:00.106Z,81.12
2023-05-25T05:48:09.933Z,81.27
2023-05-25T05:49:12.383Z,80.94
2023-05-25T05:50:15.765Z,81.36
2023-05-25T05:51:18.073Z,81.13
2023-05-25T05:52:21.459Z,81.16
2023-05-25T05:53:23.728Z,80.96
2023-05-25T05:54:28.047Z,81.21
2023-05-25T05:55:32.398Z,81.43
2023-05-25T05:56:35.669Z,81.71
2023-05-25T05:57:37.882Z,81.48
2023-05-25T05:58:41.239Z,81.29
2023-05-25T05:59:43.474Z,81.40
2023-05-25T06:00:46.928Z,81.73
2023-05-25T06:01:49.550Z,81.20
2023-05-25T06:02:52.850Z,81.34
2023-05-25T06:03:59.784Z,81.50
2023-05-25T06:05:02.856Z,81.50
2023-05-25T06:06:05.470Z,81.32
2023-05-25T06:07:09.847Z,81.44
2023-05-25T06:08:12.203Z,81.40
2023-05-25T06:09:15.730Z,81.07
2023-05-25T06:10:18.809Z,81.05
2023-05-25T06:11:21.526Z,81.26
2023-05-25T06:12:24.827Z,81.25
2023-05-25T06:13:28.219Z,80.89
2023-05-25T06:14:32.192Z,80.46
2023-05-25T06:15:37.487Z,80.37
2023-05-25T06:16:45.951Z,80.84
2023-05-25T06:17:49.430Z,80.54
2023-05-25T06:18:52.616Z,80.35
2023-05-25T06:19:57.357Z,80.57
2023-05-25T06:21:01.363Z,80.63
2023-05-25T06:22:04.659Z,80.74
2023-05-25T06:23:06.705Z,80.23
2023-05-25T06:24:10.258Z,80.55
2023-05-25T06:25:12.441Z,80.52
2023-05-25T06:26:15.635Z,80.45
2023-05-25T06:27:17.959Z,80.34
2023-05-25T06:28:21.175Z,80.27
2023-05-25T06:29:26.015Z,80.13
2023-05-25T06:30:28.391Z,80.23
2023-05-25T06:31:32.041Z,80.11
2023-05-25T06:32:35.333Z,79.85
2023-05-25T06:33:38.671Z,80.13
2023-05-25T06:34:41.803Z,79.77
2023-05-25T06:35:47.532Z,80.27
2023-05-25T06:36:50.204Z,79.63
2023-05-25T06:37:54.098Z,79.83
2023-05-25T06:38:56.322Z,80.30
2023-05-25T06:39:59.467Z,79.81
2023-05-25T06:41:05.001Z,79.74
2023-05-25T06:42:08.315Z,79.54
2023-05-25T06:43:11.806Z,80.08
2023-05-25T06:44:24.046Z,79.80
2023-05-25T06:45:28.469Z,79.77
2023-05-25T06:46:31.872Z,79.69
2023-05-25T06:47:35.681Z,79.73
2023-05-25T06:48:40.554Z,79.51
2023-05-25T06:49:44.760Z,79.45
2023-05-25T06:50:48.602Z,79.72
2023-05-25T06:51:52.351Z,80.00
2023-05-25T06:52:55.826Z,79.60
2023-05-25T06:53:58.099Z,79.65
2023-05-25T06:55:01.349Z,79.62
2023-05-25T06:56:03.745Z,79.39
2023-05-25T06:57:08.108Z,79.33
2023-05-25T06:58:10.418Z,79.21
2023-05-25T06:59:14.182Z,79.30
2023-05-25T07:00:18.823Z,79.51
2023-05-25T07:01:21.981Z,79.50
2023-05-25T07:02:25.424Z,79.32
2023-05-25T07:03:28.736Z,79.22
2023-05-25T07:04:31.232Z,79.14
2023-05-25T07:05:34.371Z,79.01
2023-05-25T07:06:38.017Z,79.28
2023-05-25T07:07:41.760Z,79.35
2023-05-25T07:08:44.257Z,79.64
2023-05-25T07:09:47.615Z,79.67
2023-05-25T07:10:50.903Z,79.45
2023-05-25T07:11:53.264Z,79.51
2023-05-25T07:12:56.615Z,79.36
2023-05-25T07:13:58.955Z,79.32
2023-05-25T07:15:02.217Z,79.01
2023-05-25T07:16:04.404Z,79.16
2023-05-25T07:17:08.068Z,78.89
2023-05-25T07:18:12.657Z,78.81
2023-05-25T07:19:16.220Z,78.91
2023-05-25T07:20:19.142Z,79.62
2023-05-25T07:21:22.343Z,79.64
2023-05-25T07:22:25.927Z,79.32
2023-05-25T07:23:29.269Z,79.52
2023-05-25T07:24:31.610Z,79.63
2023-05-25T07:25:34.859Z,79.39
2023-05-25T07:26:38.509Z,79.52
2023-05-25T07:27:42.901Z,79.27
2023-05-25T07:28:46.171Z,79.08
2023-05-25T07:29:48.353Z,79.15
2023-05-25T07:30:51.318Z,79.08
2023-05-25T07:31:53.186Z,79.12
2023-05-25T07:32:56.976Z,79.15
2023-05-25T07:33:58.914Z,78.77
2023-05-25T07:35:01.700Z,78.82
2023-05-25T07:36:04.726Z,78.61
2023-05-25T07:37:06.578Z,78.25
2023-05-25T07:38:10.755Z,78.08
2023-05-25T07:39:12.622Z,78.09
2023-05-25T07:40:15.475Z,78.26
2023-05-25T07:41:17.456Z,78.19
2023-05-25T07:42:21.797Z,78.17
2023-05-25T07:43:25.153Z,78.27
2023-05-25T07:44:27.580Z,78.54
2023-05-25T07:45:30.945Z,78.63
2023-05-25T07:46:33.257Z,78.68
2023-05-25T07:47:36.524Z,78.74
2023-05-25T07:48:39.818Z,78.57
2023-05-25T07:49:41.710Z,78.33
2023-05-25T07:50:44.495Z,78.31
2023-05-25T07:51:46.371Z,78.55
2023-05-25T07:52:49.164Z,78.37
2023-05-25T07:53:54.006Z,78.48
2023-05-25T07:54:55.826Z,78.43
2023-05-25T07:55:58.674Z,78.49
2023-05-25T07:57:01.563Z,78.39
2023-05-25T07:58:07.360Z,78.16
2023-05-25T07:59:10.878Z,78.26
2023-05-25T08:00:13.656Z,78.56
2023-05-25T08:01:17.378Z,78.27
2023-05-25T08:02:19.310Z,78.54
2023-05-25T08:03:31.773Z,78.75
2023-05-25T08:04:38.904Z,78.54
2023-05-25T08:05:40.929Z,78.26
2023-05-25T08:06:44.868Z,78.59
2023-05-25T08:07:46.692Z,78.64
2023-05-25T08:08:50.004Z,78.40
2023-05-25T08:09:53.176Z,78.44
2023-05-25T08:10:56.007Z,78.21
2023-05-25T08:12:12.861Z,77.89
2023-05-25T08:13:20.761Z,77.98
2023-05-25T08:14:23.845Z,77.88
2023-05-25T08:15:27.575Z,78.33
2023-05-25T08:16:29.474Z,78.52
2023-05-25T08:17:32.326Z,78.58
2023-05-25T08:18:34.226Z,78.59
2023-05-25T08:19:37.005Z,78.08
2023-05-25T08:20:38.827Z,78.02
2023-05-25T08:21:41.664Z,77.96
2023-05-25T08:22:43.519Z,78.02
2023-05-25T08:23:46.350Z,77.59
2023-05-25T08:24:48.185Z,77.78
2023-05-25T08:25:53.376Z,77.45
2023-05-25T08:26:56.267Z,77.18
2023-05-25T08:27:58.132Z,77.33
2023-05-25T08:29:02.248Z,77.34
2023-05-25T08:30:06.864Z,77.22
2023-05-25T08:31:08.787Z,76.72
2023-05-25T08:32:11.622Z,76.45
2023-05-25T08:33:13.507Z,76.07
2023-05-25T08:34:16.434Z,75.94
2023-05-25T08:35:19.721Z,75.93
2023-05-25T08:36:21.576Z,76.11
2023-05-25T08:37:25.156Z,76.21
2023-05-25T08:38:27.922Z,75.52
2023-05-25T08:39:29.847Z,76.08
2023-05-25T08:40:32.732Z,76.09
2023-05-25T08:41:36.870Z,76.03
2023-05-25T08:42:39.676Z,75.69
2023-05-25T08:43:41.981Z,75.35
2023-05-25T08:44:44.815Z,75.55
2023-05-25T08:45:47.773Z,75.09
2023-05-25T08:46:50.746Z,75.21
2023-05-25T08:47:54.411Z,75.03
2023-05-25T08:49:01.990Z,74.97
2023-05-25T08:50:05.535Z,74.97
2023-05-25T08:51:10.267Z,74.77
2023-05-25T08:52:15.750Z,74.89
2023-05-25T08:53:20.218Z,75.01
2023-05-25T08:54:23.448Z,75.62
2023-05-25T08:55:28.316Z,74.77
2023-05-25T08:56:31.271Z,74.77
2023-05-25T08:57:44.386Z,74.54
2023-05-25T08:58:58.570Z,74.29
2023-05-25T09:00:07.248Z,74.25
2023-05-25T09:01:12.118Z,74.27
2023-05-25T09:02:23.369Z,74.42
2023-05-25T09:03:26.462Z,74.17
2023-05-25T09:04:29.767Z,74.28
2023-05-25T09:05:33.880Z,74.21
2023-05-25T09:06:38.506Z,73.34
2023-05-25T09:07:41.728Z,73.61
2023-05-25T09:08:45.461Z,73.58
2023-05-25T09:09:48.101Z,73.64
2023-05-25T09:10:51.397Z,73.16
2023-05-25T09:11:53.675Z,72.75
2023-05-25T09:12:58.501Z,72.63
2023-05-25T09:14:00.966Z,72.90
2023-05-25T09:15:03.888Z,73.04
2023-05-25T09:16:05.918Z,72.70
2023-05-25T09:17:08.683Z,72.63
2023-05-25T09:18:12.362Z,73.05
2023-05-25T09:19:18.799Z,73.36
2023-05-25T09:20:21.697Z,73.32
2023-05-25T09:21:23.529Z,73.23
2023-05-25T09:22:26.443Z,72.97
2023-05-25T09:23:29.391Z,73.10
2023-05-25T09:24:31.419Z,72.39
2023-05-25T09:25:34.984Z,72.61
2023-05-25T09:26:37.853Z,72.58
2023-05-25T09:27:39.733Z,72.81
2023-05-25T09:28:47.927Z,72.48
2023-05-25T09:29:50.939Z,72.99
2023-05-25T09:30:53.851Z,72.83
2023-05-25T09:31:57.528Z,72.47
2023-05-25T09:33:11.024Z,72.03
2023-05-25T09:34:13.161Z,71.78
2023-05-25T09:35:16.215Z,71.42
2023-05-25T09:36:21.912Z,71.74
2023-05-25T09:37:25.107Z,71.98
2023-05-25T09:38:28.237Z,72.16
2023-05-25T09:39:30.529Z,71.82
2023-05-25T09:40:34.609Z,71.97
2023-05-25T09:41:36.575Z,71.82
2023-05-25T09:42:39.584Z,72.16
2023-05-25T09:43:49.019Z,71.79
2023-05-25T09:45:00.547Z,72.35
2023-05-25T09:46:03.344Z,71.70
2023-05-25T09:47:06.934Z,71.48
2023-05-25T09:48:09.827Z,71.63
2023-05-25T09:49:12.771Z,71.95
2023-05-25T09:50:15.716Z,71.31
2023-05-25T09:51:18.627Z,70.79
2023-05-25T09:52:21.191Z,70.97
2023-05-25T09:53:23.973Z,70.82
2023-05-25T09:54:26.228Z,71.02
2023-05-25T09:55:40.079Z,70.82
2023-05-25T09:56:52.826Z,70.36
2023-05-25T09:57:55.845Z,70.85
2023-05-25T09:58:57.712Z,71.08
2023-05-25T10:00:04.922Z,70.78
2023-05-25T10:01:14.450Z,70.49
2023-05-25T10:02:16.375Z,70.18
2023-05-25T10:03:21.611Z,70.02
2023-05-25T10:04:24.485Z,70.63
2023-05-25T10:05:26.275Z,70.66
2023-05-25T10:06:29.573Z,70.76
2023-05-25T10:07:32.849Z,70.49
2023-05-25T10:08:34.813Z,70.46
2023-05-25T10:09:41.138Z,70.98
2023-05-25T10:10:43.521Z,70.80
2023-05-25T10:11:46.904Z,70.45
2023-05-25T10:12:51.880Z,70.54
2023-05-25T10:13:55.817Z,71.39
2023-05-25T10:15:01.742Z,71.24
2023-05-25T10:16:04.793Z,71.05
2023-05-25T10:17:08.210Z,70.79
2023-05-25T10:18:12.078Z,70.54
2023-05-25T10:19:18.600Z,70.91
2023-05-25T10:20:22.304Z,71.43
2023-05-25T10:21:25.712Z,70.87
2023-05-25T10:22:33.914Z,71.24
2023-05-25T10:23:40.176Z,71.18
2023-05-25T10:24:45.002Z,71.49
2023-05-25T10:25:48.934Z,71.16
2023-05-25T10:26:54.485Z,71.01
2023-05-25T10:28:00.509Z,70.74
2023-05-25T10:29:04.517Z,70.14
2023-05-25T10:30:09.981Z,70.38
2023-05-25T10:31:12.592Z,70.56
2023-05-25T10:32:16.105Z,70.08
2023-05-25T10:33:20.077Z,69.83
2023-05-25T10:34:22.178Z,69.71
2023-05-25T10:35:25.791Z,69.44
2023-05-25T10:36:27.680Z,68.74
2023-05-25T10:37:30.666Z,69.05
2023-05-25T10:38:34.258Z,68.76
2023-05-25T10:39:36.527Z,68.76
2023-05-25T10:40:39.890Z,68.87
2023-05-25T10:41:42.961Z,69.47
2023-05-25T10:42:45.535Z,69.03
2023-05-25T10:43:48.624Z,69.42
2023-05-25T10:44:50.608Z,69.18
2023-05-25T10:45:55.638Z,69.36
2023-05-25T10:46:59.748Z,68.87
2023-05-25T10:48:02.607Z,69.28
2023-05-25T10:49:04.626Z,69.78
2023-05-25T10:50:08.820Z,69.37
2023-05-25T10:51:12.079Z,69.36
2023-05-25T10:52:18.200Z,69.36
2023-05-25T10:53:22.074Z,69.22
2023-05-25T10:54:28.547Z,69.21
2023-05-25T10:55:43.483Z,68.79
2023-05-25T10:57:10.839Z,69.16
2023-05-25T10:58:15.538Z,74.40
2023-05-25T10:59:26.127Z,74.96
2023-05-25T11:00:32.003Z,75.64
2023-05-25T11:01:51.180Z,77.69
2023-05-25T11:02:55.961Z,77.89
2023-05-25T11:04:15.706Z,79.13
2023-05-25T11:05:35.023Z,80.00
2023-05-25T11:07:08.408Z,82.16
2023-05-25T11:08:12.655Z,81.72
2023-05-25T11:09:24.336Z,81.13
2023-05-25T11:10:48.280Z,82.40
2023-05-25T11:12:03.730Z,81.93
2023-05-25T11:13:23.185Z,81.87
2023-05-25T11:14:29.867Z,81.28
2023-05-25T11:15:32.946Z,81.10
2023-05-25T11:16:37.706Z,80.25
2023-05-25T11:17:46.067Z,80.41
2023-05-25T11:18:53.962Z,80.71
2023-05-25T11:19:56.338Z,80.94
2023-05-25T11:21:12.697Z,81.51
2023-05-25T11:22:16.245Z,80.86
2023-05-25T11:23:23.953Z,81.37
2023-05-25T11:24:26.935Z,81.85
2023-05-25T11:25:43.856Z,82.62
2023-05-25T11:27:08.936Z,82.59
2023-05-25T11:28:12.010Z,81.35
2023-05-25T11:29:16.780Z,80.60
2023-05-25T11:30:18.663Z,79.90
2023-05-25T11:31:31.613Z,78.99
2023-05-25T11:32:39.824Z,79.38
2023-05-25T11:33:41.755Z,78.50
2023-05-25T11:34:46.677Z,77.38
2023-05-25T11:35:50.092Z,77.24
2023-05-25T11:36:57.720Z,77.36
2023-05-25T11:38:00.465Z,77.07
2023-05-25T11:39:13.929Z,76.95
2023-05-25T11:40:23.842Z,76.20
2023-05-25T11:41:26.814Z,75.81
2023-05-25T11:42:29.345Z,75.57
2023-05-25T11:43:33.997Z,75.59
2023-05-25T11:44:37.992Z,75.79
2023-05-25T11:45:39.850Z,75.51
2023-05-25T11:46:43.925Z,75.95
2023-05-25T11:47:48.217Z,75.91
2023-05-25T11:48:52.070Z,75.30
2023-05-25T11:49:56.674Z,75.10
2023-05-25T11:51:06.407Z,75.53
2023-05-25T11:52:10.314Z,75.65
2023-05-25T11:53:12.267Z,75.09
2023-05-25T11:54:22.671Z,75.52
2023-05-25T11:55:25.480Z,75.45
2023-05-25T11:56:35.735Z,75.07
2023-05-25T11:57:40.326Z,74.17
2023-05-25T11:58:44.517Z,73.28
2023-05-25T11:59:50.906Z,74.23
2023-05-25T12:00:53.785Z,74.46
2023-05-25T12:01:59.391Z,73.95
2023-05-25T12:03:03.664Z,74.16
2023-05-25T12:04:09.318Z,74.60
2023-05-25T12:05:12.687Z,75.28
2023-05-25T12:06:27.141Z,75.95
2023-05-25T12:07:30.868Z,74.88
2023-05-25T12:08:33.005Z,74.27
2023-05-25T12:09:36.689Z,74.68
2023-05-25T12:10:52.295Z,76.88
2023-05-25T12:11:55.149Z,75.93
2023-05-25T12:12:58.396Z,75.00
2023-05-25T12:14:02.332Z,74.26
2023-05-25T12:15:05.602Z,74.17
2023-05-25T12:16:08.389Z,74.16
2023-05-25T12:17:11.449Z,74.77
2023-05-25T12:18:14.856Z,73.74
2023-05-25T12:19:18.213Z,73.62
2023-05-25T12:20:21.452Z,74.31
2023-05-25T12:21:24.024Z,75.10
2023-05-25T12:22:26.875Z,75.09
2023-05-25T12:23:29.916Z,74.59
2023-05-25T12:24:32.776Z,75.21
2023-05-25T12:25:46.595Z,75.36
2023-05-25T12:26:57.302Z,76.33
2023-05-25T12:28:11.915Z,77.87
2023-05-25T12:29:14.787Z,75.85
2023-05-25T12:30:16.720Z,75.08
2023-05-25T12:31:24.104Z,72.80
2023-05-25T12:32:27.131Z,73.37
2023-05-25T12:33:30.429Z,72.96
2023-05-25T12:34:33.255Z,73.96
2023-05-25T12:35:45.406Z,75.35
2023-05-25T12:36:50.668Z,73.97
2023-05-25T12:38:09.973Z,77.17
2023-05-25T12:39:14.347Z,74.69
2023-05-25T12:40:20.460Z,73.63
2023-05-25T12:41:23.599Z,73.79
2023-05-25T12:42:27.763Z,74.01
2023-05-25T12:43:37.317Z,74.68
2023-05-25T12:44:40.341Z,72.51
2023-05-25T12:45:42.876Z,71.70
2023-05-25T12:46:45.901Z,71.10
2023-05-25T12:47:48.864Z,72.37
2023-05-25T12:48:52.192Z,70.48
2023-05-25T12:49:55.796Z,70.88
2023-05-25T12:50:58.251Z,71.72
2023-05-25T12:52:02.301Z,71.15
2023-05-25T12:53:05.590Z,69.96
2023-05-25T12:54:07.470Z,70.74
2023-05-25T12:55:20.611Z,71.23
2023-05-25T12:56:22.678Z,69.14
2023-05-25T12:57:36.216Z,69.03
2023-05-25T12:58:38.992Z,68.98
2023-05-25T12:59:57.398Z,69.39
2023-05-25T13:01:00.269Z,68.53
2023-05-25T13:02:02.818Z,68.10
2023-05-25T13:03:07.558Z,68.42
2023-05-25T13:04:10.967Z,68.06
2023-05-25T13:05:19.528Z,67.98
2023-05-25T13:06:21.459Z,67.90
2023-05-25T13:07:24.388Z,68.02
2023-05-25T13:08:26.222Z,67.16
2023-05-25T13:09:29.128Z,67.17
2023-05-25T13:10:33.020Z,67.08
2023-05-25T13:11:34.860Z,66.89
2023-05-25T13:12:37.735Z,67.25
2023-05-25T13:13:39.612Z,67.46
2023-05-25T13:14:42.373Z,67.13
2023-05-25T13:15:44.389Z,66.81
2023-05-25T13:16:47.289Z,66.25
2023-05-25T13:17:51.362Z,66.23
2023-05-25T13:18:53.306Z,66.12
2023-05-25T13:19:57.417Z,65.93
2023-05-25T13:20:59.500Z,66.66
2023-05-25T13:22:02.580Z,66.46
2023-05-25T13:23:05.928Z,66.61
2023-05-25T13:24:08.847Z,65.59
2023-05-25T13:25:11.548Z,64.82
2023-05-25T13:26:14.316Z,64.66
2023-05-25T13:27:16.148Z,64.72
2023-05-25T13:28:18.955Z,64.50
2023-05-25T13:29:20.806Z,64.46
2023-05-25T13:30:23.631Z,64.62
2023-05-25T13:31:25.718Z,64.40
2023-05-25T13:32:31.404Z,64.42
2023-05-25T13:33:33.263Z,64.58
2023-05-25T13:34:36.151Z,64.35
2023-05-25T13:35:46.223Z,64.93
2023-05-25T13:36:49.136Z,65.00
2023-05-25T13:37:51.210Z,64.56
2023-05-25T13:38:54.722Z,64.81
2023-05-25T13:39:58.271Z,64.99
2023-05-25T13:41:00.399Z,65.09
2023-05-25T13:42:03.157Z,65.15
2023-05-25T13:43:06.388Z,65.12
2023-05-25T13:44:08.499Z,64.91
2023-05-25T13:45:11.933Z,65.14
2023-05-25T13:46:25.999Z,65.24
2023-05-25T13:47:36.954Z,65.23
2023-05-25T13:48:39.036Z,65.23
2023-05-25T13:49:41.887Z,65.39
2023-05-25T13:50:45.419Z,65.40
2023-05-25T13:51:49.017Z,65.52